createdAt,value
2023-02-15T00:02:16.744Z,101940.88
2023-02-15T00:04:49.824Z,101943.09
2023-02-15T00:07:21.889Z,101941.28
2023-02-15T00:09:52.356Z,101943.88
2023-02-15T00:12:22.258Z,101935.88
2023-02-15T00:14:52.130Z,101934.13
2023-02-15T00:17:24.696Z,101932.47
2023-02-15T00:19:54.568Z,101922.00
2023-02-15T00:22:24.606Z,101925.13
2023-02-15T00:24:54.454Z,101919.66
2023-02-15T00:27:24.316Z,101924.59
2023-02-15T00:29:54.562Z,101924.69
2023-02-15T00:32:27.122Z,101935.97
2023-02-15T00:34:57.047Z,101935.53
2023-02-15T00:37:27.982Z,101935.69
2023-02-15T00:39:57.817Z,101927.75
2023-02-15T00:42:27.875Z,101924.53
2023-02-15T00:44:57.726Z,101926.09
2023-02-15T00:47:30.209Z,101930.47
2023-02-15T00:50:00.134Z,101927.19
2023-02-15T00:52:30.445Z,101922.03
2023-02-15T00:55:00.247Z,101929.81
2023-02-15T00:57:30.095Z,101923.81
2023-02-15T00:59:59.952Z,101923.75
2023-02-15T01:02:32.467Z,101924.22
2023-02-15T01:05:02.333Z,101917.56
2023-02-15T01:07:32.175Z,101927.59
2023-02-15T01:10:03.010Z,101922.75
2023-02-15T01:12:32.804Z,101927.81
2023-02-15T01:15:02.706Z,101914.84
2023-02-15T01:17:35.582Z,101930.31
2023-02-15T01:20:08.869Z,101921.81
2023-02-15T01:22:38.754Z,101921.22
2023-02-15T01:25:09.531Z,101924.00
2023-02-15T01:27:39.404Z,101919.31
2023-02-15T01:30:11.132Z,101923.91
2023-02-15T01:32:44.316Z,101922.66
2023-02-15T01:35:14.548Z,101920.47
2023-02-15T01:37:44.565Z,101910.75
2023-02-15T01:40:19.024Z,101920.53
2023-02-15T01:42:49.590Z,101920.00
2023-02-15T01:45:25.323Z,101908.94
2023-02-15T01:48:04.151Z,101904.63
2023-02-15T01:50:38.124Z,101895.78
2023-02-15T01:53:17.499Z,101902.28
2023-02-15T01:55:54.216Z,101891.84
2023-02-15T01:58:26.397Z,101894.31
2023-02-15T02:00:59.699Z,101890.84
2023-02-15T02:03:46.240Z,101890.41
2023-02-15T02:06:16.699Z,101893.81
2023-02-15T02:08:47.796Z,101894.31
2023-02-15T02:11:18.753Z,101886.31
2023-02-15T02:13:50.935Z,101882.16
2023-02-15T02:16:29.006Z,101886.53
2023-02-15T02:19:31.126Z,101880.19
2023-02-15T02:22:31.862Z,101881.59
2023-02-15T02:25:36.673Z,101878.84
2023-02-15T02:28:33.943Z,101875.81
2023-02-15T02:31:35.082Z,101865.22
2023-02-15T02:34:17.102Z,101870.00
2023-02-15T02:36:59.125Z,101859.34
2023-02-15T02:39:40.559Z,101857.88
2023-02-15T02:42:22.422Z,101861.78
2023-02-15T02:45:00.693Z,101860.97
2023-02-15T02:47:37.532Z,101850.28
2023-02-15T02:50:12.065Z,101860.16
2023-02-15T02:52:44.753Z,101854.81
2023-02-15T02:55:21.971Z,101864.22
2023-02-15T02:57:59.461Z,101860.28
2023-02-15T03:00:35.276Z,101855.63
2023-02-15T03:03:13.608Z,101855.84
2023-02-15T03:05:50.944Z,101843.06
2023-02-15T03:08:29.094Z,101845.19
2023-02-15T03:11:04.057Z,101847.22
2023-02-15T03:13:35.251Z,101845.78
2023-02-15T03:16:21.709Z,101834.78
2023-02-15T03:18:59.003Z,101834.19
2023-02-15T03:21:38.353Z,101834.13
2023-02-15T03:24:17.212Z,101844.22
2023-02-15T03:26:51.434Z,101848.31
2023-02-15T03:29:26.379Z,101846.09
2023-02-15T03:32:03.212Z,101847.03
2023-02-15T03:34:33.592Z,101846.03
2023-02-15T03:37:17.130Z,101851.38
2023-02-15T03:39:56.043Z,101845.97
2023-02-15T03:42:32.659Z,101844.97
2023-02-15T03:45:09.480Z,101846.81
2023-02-15T03:47:42.739Z,101850.44
2023-02-15T03:50:31.952Z,101849.25
2023-02-15T03:53:09.067Z,101843.06
2023-02-15T03:55:40.031Z,101844.78
2023-02-15T03:58:24.707Z,101850.56
2023-02-15T04:01:15.334Z,101850.28
2023-02-15T04:03:51.057Z,101851.53
2023-02-15T04:06:20.988Z,101845.25
2023-02-15T04:09:05.909Z,101847.06
2023-02-15T04:11:35.727Z,101849.78
2023-02-15T04:14:25.549Z,101851.84
2023-02-15T04:16:53.044Z,101854.44
2023-02-15T04:19:35.650Z,101857.47
2023-02-15T04:22:17.925Z,101847.91
2023-02-15T04:25:02.863Z,101841.16
2023-02-15T04:27:32.667Z,101840.56
2023-02-15T04:30:02.523Z,101837.13
2023-02-15T04:32:32.845Z,101836.88
2023-02-15T04:35:02.671Z,101834.13
2023-02-15T04:37:32.667Z,101833.50
2023-02-15T04:40:05.325Z,101836.50
2023-02-15T04:42:35.493Z,101839.75
2023-02-15T04:45:06.489Z,101841.97
2023-02-15T04:47:36.511Z,101845.56
2023-02-15T04:50:07.582Z,101851.19
2023-02-15T04:52:37.391Z,101841.19
2023-02-15T04:55:11.142Z,101838.41
2023-02-15T04:57:40.952Z,101844.59
2023-02-15T05:00:12.680Z,101842.44
2023-02-15T05:02:42.478Z,101843.84
2023-02-15T05:05:14.096Z,101840.09
2023-02-15T05:07:43.977Z,101839.22
2023-02-15T05:10:16.510Z,101835.53
2023-02-15T05:12:46.484Z,101837.09
2023-02-15T05:15:16.421Z,101837.50
2023-02-15T05:17:46.272Z,101834.59
2023-02-15T05:20:16.196Z,101840.31
2023-02-15T05:22:46.072Z,101836.69
2023-02-15T05:25:31.231Z,101829.34
2023-02-15T05:28:13.539Z,101827.50
2023-02-15T05:30:44.092Z,101838.03
2023-02-15T05:33:14.001Z,101823.31
2023-02-15T05:35:43.878Z,101828.47
2023-02-15T05:38:13.725Z,101825.66
2023-02-15T05:40:47.128Z,101831.47
2023-02-15T05:43:17.608Z,101832.09
2023-02-15T05:45:49.066Z,101837.16
2023-02-15T05:48:19.135Z,101828.75
2023-02-15T05:50:49.225Z,101841.75
2023-02-15T05:53:19.204Z,101849.44
2023-02-15T05:55:51.622Z,101853.97
2023-02-15T05:58:21.434Z,101853.00
2023-02-15T06:00:51.319Z,101850.69
2023-02-15T06:03:21.241Z,101851.19
2023-02-15T06:05:51.556Z,101851.50
2023-02-15T06:08:21.822Z,101855.78
2023-02-15T06:10:54.345Z,101864.88
2023-02-15T06:13:24.330Z,101859.03
2023-02-15T06:15:54.331Z,101867.63
2023-02-15T06:18:24.305Z,101867.59
2023-02-15T06:20:54.504Z,101867.81
2023-02-15T06:23:24.804Z,101867.94
2023-02-15T06:25:57.474Z,101872.91
2023-02-15T06:28:27.936Z,101871.63
2023-02-15T06:30:57.936Z,101879.69
2023-02-15T06:33:27.921Z,101881.69
2023-02-15T06:35:57.786Z,101881.41
2023-02-15T06:38:27.941Z,101889.31
2023-02-15T06:41:00.778Z,101880.63
2023-02-15T06:43:30.644Z,101887.88
2023-02-15T06:46:01.037Z,101885.63
2023-02-15T06:48:31.090Z,101890.38
2023-02-15T06:51:00.991Z,101895.16
2023-02-15T06:53:30.832Z,101889.94
2023-02-15T06:56:10.150Z,101899.66
2023-02-15T06:58:40.243Z,101900.03
2023-02-15T07:01:11.668Z,101896.06
2023-02-15T07:03:41.637Z,101902.38
2023-02-15T07:06:12.336Z,101896.50
2023-02-15T07:08:42.979Z,101892.47
2023-02-15T07:11:27.883Z,101894.97
2023-02-15T07:13:57.872Z,101887.88
2023-02-15T07:16:27.841Z,101884.25
2023-02-15T07:18:57.794Z,101886.16
2023-02-15T07:21:27.662Z,101882.50
2023-02-15T07:24:00.872Z,101885.53
2023-02-15T07:26:35.400Z,101892.03
2023-02-15T07:29:05.523Z,101895.06
2023-02-15T07:31:35.953Z,101893.38
2023-02-15T07:34:05.838Z,101896.22
2023-02-15T07:36:35.634Z,101895.34
2023-02-15T07:39:05.637Z,101889.41
2023-02-15T07:41:38.181Z,101895.50
2023-02-15T07:44:15.774Z,101888.63
2023-02-15T07:46:45.812Z,101890.50
2023-02-15T07:49:16.434Z,101877.47
2023-02-15T07:51:46.682Z,101887.13
2023-02-15T07:54:16.540Z,101886.53
2023-02-15T07:56:49.020Z,101883.66
2023-02-15T07:59:18.895Z,101891.38
2023-02-15T08:01:48.819Z,101886.94
2023-02-15T08:04:19.183Z,101889.22
2023-02-15T08:06:49.111Z,101886.63
2023-02-15T08:09:18.993Z,101883.16
2023-02-15T08:11:51.799Z,101887.59
2023-02-15T08:14:23.345Z,101885.13
2023-02-15T08:16:55.901Z,101884.56
2023-02-15T08:19:28.528Z,101884.91
2023-02-15T08:22:01.016Z,101883.84
2023-02-15T08:24:37.890Z,101877.91
2023-02-15T08:27:12.796Z,101868.22
2023-02-15T08:29:43.340Z,101863.94
2023-02-15T08:32:15.928Z,101877.88
2023-02-15T08:34:45.811Z,101872.34
2023-02-15T08:37:15.712Z,101876.50
2023-02-15T08:39:46.968Z,101868.56
2023-02-15T08:42:21.235Z,101867.00
2023-02-15T08:44:51.558Z,101855.75
2023-02-15T08:47:21.446Z,101852.84
2023-02-15T08:49:52.222Z,101846.78
2023-02-15T08:52:22.339Z,101855.34
2023-02-15T08:54:52.383Z,101855.53
2023-02-15T08:57:25.307Z,101859.97
2023-02-15T08:59:56.066Z,101853.09
2023-02-15T09:02:26.008Z,101848.53
2023-02-15T09:04:56.550Z,101846.03
2023-02-15T09:07:26.424Z,101854.56
2023-02-15T09:09:56.428Z,101848.31
2023-02-15T09:12:29.008Z,101844.38
2023-02-15T09:14:58.839Z,101839.56
2023-02-15T09:17:28.716Z,101838.38
2023-02-15T09:19:58.667Z,101841.50
2023-02-15T09:22:28.622Z,101839.13
2023-02-15T09:24:58.471Z,101836.13
2023-02-15T09:27:30.872Z,101837.09
2023-02-15T09:30:00.811Z,101836.59
2023-02-15T09:32:30.693Z,101838.66
2023-02-15T09:35:00.578Z,101838.91
2023-02-15T09:37:30.480Z,101838.81
2023-02-15T09:40:00.490Z,101837.06
2023-02-15T09:42:51.407Z,101830.84
2023-02-15T09:45:35.516Z,101836.31
2023-02-15T09:48:37.835Z,101838.88
2023-02-15T09:51:28.999Z,101831.84
2023-02-15T09:54:13.796Z,101838.63
2023-02-15T09:56:51.827Z,101849.28
2023-02-15T09:59:38.750Z,101849.00
2023-02-15T10:02:26.488Z,101846.84
2023-02-15T10:05:15.280Z,101842.91
2023-02-15T10:08:12.347Z,101841.94
2023-02-15T10:10:55.400Z,101844.81
2023-02-15T10:13:40.220Z,101849.97
2023-02-15T10:16:28.934Z,101846.75
2023-02-15T10:19:09.017Z,101836.34
2023-02-15T10:21:54.330Z,101837.06
2023-02-15T10:24:58.600Z,101832.53
2023-02-15T10:27:34.051Z,101833.81
2023-02-15T10:30:14.295Z,101828.28
2023-02-15T10:32:59.882Z,101823.84
2023-02-15T10:35:44.215Z,101824.88
2023-02-15T10:38:27.337Z,101824.22
2023-02-15T10:41:12.944Z,101817.16
2023-02-15T10:44:01.895Z,101824.22
2023-02-15T10:46:57.855Z,101825.69
2023-02-15T10:49:52.288Z,101820.00
2023-02-15T10:52:36.970Z,101827.38
2023-02-15T10:55:19.742Z,101820.38
2023-02-15T10:58:03.534Z,101824.38
2023-02-15T11:00:43.201Z,101823.16
2023-02-15T11:03:31.373Z,101817.81
2023-02-15T11:06:11.332Z,101817.19
2023-02-15T11:08:47.486Z,101811.88
2023-02-15T11:11:25.724Z,101811.47
2023-02-15T11:14:03.178Z,101809.22
2023-02-15T11:16:38.686Z,101805.53
2023-02-15T11:19:15.354Z,101798.19
2023-02-15T11:21:51.991Z,101799.03
2023-02-15T11:24:24.033Z,101806.47
2023-02-15T11:27:01.294Z,101787.66
2023-02-15T11:29:38.410Z,101784.91
2023-02-15T11:32:23.156Z,101779.34
2023-02-15T11:34:59.699Z,101780.78
2023-02-15T11:37:41.670Z,101772.34
2023-02-15T11:40:25.728Z,101778.84
2023-02-15T11:42:59.833Z,101762.31
2023-02-15T11:45:33.211Z,101767.97
2023-02-15T11:48:04.235Z,101757.31
2023-02-15T11:50:36.315Z,101753.16
2023-02-15T11:53:16.076Z,101744.59
2023-02-15T11:55:48.228Z,101748.59
2023-02-15T11:58:32.073Z,101738.25
2023-02-15T12:01:11.636Z,101733.94
2023-02-15T12:03:51.091Z,101734.00
2023-02-15T12:06:28.283Z,101732.03
2023-02-15T12:09:09.130Z,101720.03
2023-02-15T12:11:41.498Z,101720.16
2023-02-15T12:14:16.720Z,101708.25
2023-02-15T12:16:51.178Z,101705.22
2023-02-15T12:19:34.288Z,101713.88
2023-02-15T12:22:10.799Z,101700.81
2023-02-15T12:24:51.056Z,101694.03
2023-02-15T12:27:24.971Z,101694.69
2023-02-15T12:30:00.659Z,101680.78
2023-02-15T12:32:35.379Z,101694.16
2023-02-15T12:35:14.140Z,101676.16
2023-02-15T12:37:57.879Z,101664.78
2023-02-15T12:40:33.242Z,101662.22
2023-02-15T12:43:09.757Z,101670.44
2023-02-15T12:45:41.420Z,101675.00
2023-02-15T12:48:19.622Z,101669.28
2023-02-15T12:50:58.040Z,101667.63
2023-02-15T12:53:36.230Z,101662.19
2023-02-15T12:56:09.058Z,101655.44
2023-02-15T12:58:43.613Z,101664.19
2023-02-15T13:01:16.686Z,101665.09
2023-02-15T13:04:01.531Z,101648.81
2023-02-15T13:06:35.681Z,101642.53
2023-02-15T13:09:18.148Z,101650.41
2023-02-15T13:11:50.061Z,101645.94
2023-02-15T13:14:25.955Z,101623.19
2023-02-15T13:17:02.020Z,101614.09
2023-02-15T13:19:39.809Z,101599.19
2023-02-15T13:22:16.698Z,101597.91
2023-02-15T13:24:51.839Z,101600.94
2023-02-15T13:27:25.413Z,101595.41
2023-02-15T13:30:02.821Z,101586.38
2023-02-15T13:32:39.241Z,101575.19
2023-02-15T13:35:10.547Z,101583.03
2023-02-15T13:38:07.509Z,101590.63
2023-02-15T13:40:44.330Z,101586.44
2023-02-15T13:43:37.152Z,101574.06
2023-02-15T13:46:33.473Z,101565.59
2023-02-15T13:49:19.761Z,101572.00
2023-02-15T13:52:05.034Z,101563.72
2023-02-15T13:55:07.139Z,101560.97
2023-02-15T13:58:13.040Z,101565.38
2023-02-15T14:00:55.299Z,101558.41
2023-02-15T14:04:00.913Z,101554.69
2023-02-15T14:06:51.208Z,101555.63
2023-02-15T14:09:43.236Z,101549.91
2023-02-15T14:12:33.422Z,101558.59
2023-02-15T14:15:17.945Z,101557.59
2023-02-15T14:18:01.036Z,101553.94
2023-02-15T14:20:46.888Z,101553.41
2023-02-15T14:23:31.972Z,101555.47
2023-02-15T14:26:10.967Z,101563.47
2023-02-15T14:28:53.498Z,101543.31
2023-02-15T14:31:34.599Z,101551.16
2023-02-15T14:34:05.123Z,101541.00
2023-02-15T14:36:37.957Z,101550.50
2023-02-15T14:39:38.851Z,101547.25
2023-02-15T14:42:18.102Z,101553.13
2023-02-15T14:44:56.475Z,101570.69
2023-02-15T14:47:32.404Z,101573.38
2023-02-15T14:50:02.360Z,101552.38
2023-02-15T14:53:15.730Z,101557.72
2023-02-15T14:55:45.656Z,101550.72
2023-02-15T14:58:17.578Z,101565.16
2023-02-15T15:00:47.674Z,101564.41
2023-02-15T15:03:27.779Z,101578.47
2023-02-15T15:06:05.737Z,101572.78
2023-02-15T15:08:43.667Z,101566.50
2023-02-15T15:11:44.716Z,101574.44
2023-02-15T15:14:43.051Z,101572.34
2023-02-15T15:17:39.168Z,101575.19
2023-02-15T15:20:19.285Z,101575.38
2023-02-15T15:22:51.023Z,101571.28
2023-02-15T15:25:46.210Z,101576.00
2023-02-15T15:28:45.957Z,101582.72
2023-02-15T15:31:27.020Z,101574.19
2023-02-15T15:34:41.562Z,101568.25
2023-02-15T15:37:49.221Z,101573.31
2023-02-15T15:40:44.731Z,101566.03
2023-02-15T15:43:43.705Z,101568.53
2023-02-15T15:46:36.551Z,101564.66
2023-02-15T15:49:13.908Z,101557.53
2023-02-15T15:51:46.576Z,101558.88
2023-02-15T15:54:24.578Z,101558.88
2023-02-15T15:56:59.164Z,101570.09
2023-02-15T15:59:32.061Z,101566.69
2023-02-15T16:02:08.134Z,101566.75
2023-02-15T16:04:38.890Z,101579.63
2023-02-15T16:07:27.534Z,101579.19
2023-02-15T16:10:02.943Z,101590.94
2023-02-15T16:12:36.919Z,101590.16
2023-02-15T16:15:18.658Z,101590.47
2023-02-15T16:17:55.923Z,101587.63
2023-02-15T16:20:29.250Z,101585.91
2023-02-15T16:23:20.372Z,101577.09
2023-02-15T16:26:05.569Z,101577.28
2023-02-15T16:28:35.608Z,101581.66
2023-02-15T16:31:15.378Z,101576.09
2023-02-15T16:33:47.711Z,101584.78
2023-02-15T16:36:25.251Z,101575.03
2023-02-15T16:39:12.623Z,101584.78
2023-02-15T16:41:47.082Z,101585.50
2023-02-15T16:44:22.966Z,101596.84
2023-02-15T16:46:57.679Z,101590.72
2023-02-15T16:49:31.571Z,101596.97
2023-02-15T16:52:06.412Z,101602.06
2023-02-15T16:54:38.370Z,101603.06
2023-02-15T16:57:22.878Z,101601.41
2023-02-15T16:59:57.227Z,101602.72
2023-02-15T17:02:53.049Z,101598.50
2023-02-15T17:05:23.569Z,101607.38
2023-02-15T17:08:08.609Z,101601.78
2023-02-15T17:10:42.764Z,101604.25
2023-02-15T17:13:17.974Z,101595.72
2023-02-15T17:16:26.894Z,101597.91
2023-02-15T17:18:59.493Z,101602.34
2023-02-15T17:21:35.926Z,101606.22
2023-02-15T17:24:07.694Z,101601.81
2023-02-15T17:26:40.575Z,101607.53
2023-02-15T17:29:28.086Z,101600.66
2023-02-15T17:32:01.693Z,101602.75
2023-02-15T17:34:51.872Z,101611.06
2023-02-15T17:37:31.891Z,101610.13
2023-02-15T17:40:04.514Z,101608.88
2023-02-15T17:42:34.409Z,101612.28
2023-02-15T17:45:07.429Z,101608.66
2023-02-15T17:47:37.442Z,101610.22
2023-02-15T17:50:09.431Z,101605.25
2023-02-15T17:52:40.217Z,101598.19
2023-02-15T17:55:29.541Z,101606.78
2023-02-15T17:57:59.520Z,101601.63
2023-02-15T18:00:45.453Z,101602.59
2023-02-15T18:03:28.547Z,101611.72
2023-02-15T18:06:11.978Z,101607.31
2023-02-15T18:08:54.303Z,101608.75
2023-02-15T18:11:36.666Z,101602.19
2023-02-15T18:14:07.398Z,101614.38
2023-02-15T18:16:43.553Z,101609.22
2023-02-15T18:19:19.334Z,101610.47
2023-02-15T18:21:50.526Z,101611.84
2023-02-15T18:24:24.318Z,101604.72
2023-02-15T18:26:55.353Z,101601.75
2023-02-15T18:29:25.219Z,101601.03
2023-02-15T18:31:59.846Z,101603.47
2023-02-15T18:34:33.666Z,101595.72
2023-02-15T18:37:07.580Z,101600.28
2023-02-15T18:39:40.789Z,101596.31
2023-02-15T18:42:22.425Z,101602.00
2023-02-15T18:44:55.300Z,101593.94
2023-02-15T18:47:28.449Z,101587.63
2023-02-15T18:49:58.429Z,101591.03
2023-02-15T18:52:36.250Z,101595.41
2023-02-15T18:55:16.159Z,101598.63
2023-02-15T18:57:46.148Z,101604.31
2023-02-15T19:00:22.276Z,101601.66
2023-02-15T19:02:55.088Z,101595.09
2023-02-15T19:05:27.636Z,101596.19
2023-02-15T19:07:58.248Z,101597.41
2023-02-15T19:10:31.602Z,101595.38
2023-02-15T19:13:01.698Z,101600.00
2023-02-15T19:15:33.491Z,101596.53
2023-02-15T19:18:06.622Z,101600.06
2023-02-15T19:20:41.658Z,101603.19
2023-02-15T19:23:20.378Z,101603.50
2023-02-15T19:25:52.528Z,101602.47
2023-02-15T19:28:29.069Z,101599.22
2023-02-15T19:30:58.972Z,101601.75
2023-02-15T19:33:31.502Z,101594.63
2023-02-15T19:36:01.750Z,101591.63
2023-02-15T19:38:36.959Z,101586.81
2023-02-15T19:41:11.336Z,101582.34
2023-02-15T19:43:41.279Z,101577.38
2023-02-15T19:46:20.334Z,101572.06
2023-02-15T19:48:53.891Z,101572.31
2023-02-15T19:51:26.518Z,101577.03
2023-02-15T19:53:57.865Z,101575.19
2023-02-15T19:56:28.107Z,101569.66
2023-02-15T19:58:58.745Z,101578.88
2023-02-15T20:01:29.087Z,101577.41
2023-02-15T20:04:01.591Z,101588.66
2023-02-15T20:06:31.624Z,101582.22
2023-02-15T20:09:02.078Z,101581.78
2023-02-15T20:11:32.017Z,101577.38
2023-02-15T20:14:01.938Z,101593.31
2023-02-15T20:16:31.910Z,101588.41
2023-02-15T20:19:04.529Z,101590.53
2023-02-15T20:21:36.167Z,101585.78
2023-02-15T20:24:08.321Z,101591.81
2023-02-15T20:26:38.316Z,101590.53
2023-02-15T20:29:10.348Z,101607.56
2023-02-15T20:31:40.587Z,101612.31
2023-02-15T20:34:14.440Z,101615.47
2023-02-15T20:36:44.910Z,101624.81
2023-02-15T20:39:24.317Z,101631.72
2023-02-15T20:41:54.211Z,101631.25
2023-02-15T20:44:28.601Z,101643.06
2023-02-15T20:47:02.618Z,101634.41
2023-02-15T20:49:37.565Z,101626.06
2023-02-15T20:52:21.984Z,101634.06
2023-02-15T20:54:51.995Z,101625.63
2023-02-15T20:57:21.893Z,101632.03
2023-02-15T20:59:51.887Z,101629.13
2023-02-15T21:02:25.035Z,101622.34
2023-02-15T21:04:57.817Z,101630.88
2023-02-15T21:07:27.709Z,101625.72
2023-02-15T21:09:57.657Z,101624.31
2023-02-15T21:12:27.954Z,101620.97
2023-02-15T21:14:57.917Z,101631.16
2023-02-15T21:17:27.847Z,101627.00
2023-02-15T21:20:00.327Z,101628.91
2023-02-15T21:22:30.714Z,101638.38
2023-02-15T21:25:02.598Z,101641.56
2023-02-15T21:27:32.793Z,101638.28
2023-02-15T21:30:02.806Z,101627.50
2023-02-15T21:32:33.146Z,101636.22
2023-02-15T21:35:05.946Z,101635.34
2023-02-15T21:37:39.912Z,101646.66
2023-02-15T21:40:19.507Z,101639.34
2023-02-15T21:43:02.206Z,101639.34
2023-02-15T21:45:44.804Z,101624.53
2023-02-15T21:48:14.852Z,101639.34
2023-02-15T21:50:59.890Z,101636.41
2023-02-15T21:53:33.713Z,101622.56
2023-02-15T21:56:06.830Z,101628.91
2023-02-15T21:58:39.822Z,101628.84
2023-02-15T22:01:20.551Z,101630.94
2023-02-15T22:03:52.505Z,101629.38
2023-02-15T22:06:25.241Z,101622.78
2023-02-15T22:08:55.145Z,101620.41
2023-02-15T22:11:25.261Z,101620.06
2023-02-15T22:13:55.235Z,101615.69
2023-02-15T22:16:26.091Z,101611.03
2023-02-15T22:18:55.960Z,101616.81
2023-02-15T22:21:31.499Z,101612.31
2023-02-15T22:24:01.393Z,101623.59
2023-02-15T22:26:31.374Z,101621.00
2023-02-15T22:29:01.376Z,101633.47
2023-02-15T22:31:34.073Z,101633.69
2023-02-15T22:34:03.975Z,101637.84
2023-02-15T22:36:36.882Z,101641.41
2023-02-15T22:39:06.964Z,101634.72
2023-02-15T22:41:36.924Z,101632.19
2023-02-15T22:44:06.843Z,101633.09
2023-02-15T22:46:38.368Z,101634.03
2023-02-15T22:49:08.360Z,101637.53
2023-02-15T22:51:40.860Z,101640.50
2023-02-15T22:54:10.798Z,101636.59
2023-02-15T22:56:44.787Z,101630.41
2023-02-15T22:59:24.487Z,101635.16
2023-02-15T23:01:55.958Z,101637.81
2023-02-15T23:04:29.615Z,101635.84
2023-02-15T23:07:02.394Z,101633.66
2023-02-15T23:09:32.231Z,101625.34
2023-02-15T23:12:02.121Z,101624.22
2023-02-15T23:14:38.418Z,101619.91
2023-02-15T23:17:08.321Z,101611.63
2023-02-15T23:19:38.117Z,101618.41
2023-02-15T23:22:15.675Z,101611.81
2023-02-15T23:24:47.998Z,101617.63
2023-02-15T23:27:33.129Z,101619.22
2023-02-15T23:30:04.438Z,101627.41
2023-02-15T23:32:35.303Z,101633.25
2023-02-15T23:35:05.222Z,101630.41
2023-02-15T23:37:37.609Z,101624.41
2023-02-15T23:40:21.244Z,101614.66
2023-02-15T23:42:51.106Z,101612.06
2023-02-15T23:45:25.651Z,101619.91
2023-02-15T23:48:08.212Z,101617.72
2023-02-15T23:50:38.204Z,101615.47
2023-02-15T23:53:13.136Z,101620.13
2023-02-15T23:55:47.300Z,101613.38
2023-02-15T23:58:20.984Z,101612.56
